sensor_id;sensor_type;location;lat;lon;timestamp;temperature;humidity
4993;DHT22;2514;53.524;10.166;2022-08-14T00:01:51;22.10;1.00
4993;DHT22;2514;53.524;10.166;2022-08-14T00:04:20;22.00;1.00
4993;DHT22;2514;53.524;10.166;2022-08-14T00:06:48;22.00;1.00
4993;DHT22;2514;53.524;10.166;2022-08-14T00:09:19;22.00;1.00
4993;DHT22;2514;53.524;10.166;2022-08-14T00:11:48;22.00;1.00
4993;DHT22;2514;53.524;10.166;2022-08-14T00:14:17;22.00;1.00
4993;DHT22;2514;53.524;10.166;2022-08-14T00:16:47;22.10;1.00
4993;DHT22;2514;53.524;10.166;2022-08-14T00:19:17;22.00;1.00
4993;DHT22;2514;53.524;10.166;2022-08-14T00:21:47;22.00;1.00
4993;DHT22;2514;53.524;10.166;2022-08-14T00:24:17;21.90;1.00
4993;DHT22;2514;53.524;10.166;2022-08-14T00:26:46;21.90;1.00
4993;DHT22;2514;53.524;10.166;2022-08-14T00:29:19;21.90;1.00
4993;DHT22;2514;53.524;10.166;2022-08-14T00:31:52;21.90;1.00
4993;DHT22;2514;53.524;10.166;2022-08-14T00:34:25;21.80;1.00
4993;DHT22;2514;53.524;10.166;2022-08-14T00:36:55;21.80;1.00
4993;DHT22;2514;53.524;10.166;2022-08-14T00:39:25;21.80;1.00
4993;DHT22;2514;53.524;10.166;2022-08-14T00:41:57;21.80;1.00
4993;DHT22;2514;53.524;10.166;2022-08-14T00:44:30;21.80;1.00
4993;DHT22;2514;53.524;10.166;2022-08-14T00:47:02;21.80;1.00
4993;DHT22;2514;53.524;10.166;2022-08-14T00:49:34;21.80;1.00
4993;DHT22;2514;53.524;10.166;2022-08-14T00:52:04;21.80;1.00
4993;DHT22;2514;53.524;10.166;2022-08-14T00:54:43;21.70;1.00
4993;DHT22;2514;53.524;10.166;2022-08-14T00:57:13;21.70;1.00
4993;DHT22;2514;53.524;10.166;2022-08-14T00:59:48;21.70;1.00
4993;DHT22;2514;53.524;10.166;2022-08-14T01:02:22;21.70;1.00
4993;DHT22;2514;53.524;10.166;2022-08-14T01:04:51;21.70;1.00
4993;DHT22;2514;53.524;10.166;2022-08-14T01:07:18;21.60;41.60
4993;DHT22;2514;53.524;10.166;2022-08-14T01:09:47;21.60;98.40
4993;DHT22;2514;53.524;10.166;2022-08-14T01:12:16;21.60;99.90
4993;DHT22;2514;53.524;10.166;2022-08-14T01:14:43;21.70;90.30
4993;DHT22;2514;53.524;10.166;2022-08-14T01:17:11;21.70;99.90
4993;DHT22;2514;53.524;10.166;2022-08-14T01:19:38;21.70;92.20
4993;DHT22;2514;53.524;10.166;2022-08-14T01:22:24;21.70;96.70
4993;DHT22;2514;53.524;10.166;2022-08-14T01:24:51;21.70;96.00
4993;DHT22;2514;53.524;10.166;2022-08-14T01:27:21;21.70;99.90
4993;DHT22;2514;53.524;10.166;2022-08-14T01:29:51;21.70;99.90
4993;DHT22;2514;53.524;10.166;2022-08-14T01:32:19;21.70;99.90
4993;DHT22;2514;53.524;10.166;2022-08-14T01:34:47;21.70;99.90
4993;DHT22;2514;53.524;10.166;2022-08-14T01:37:15;21.70;99.90
4993;DHT22;2514;53.524;10.166;2022-08-14T01:39:43;21.70;99.90
4993;DHT22;2514;53.524;10.166;2022-08-14T01:42:10;21.70;99.90
4993;DHT22;2514;53.524;10.166;2022-08-14T01:44:37;21.70;99.90
4993;DHT22;2514;53.524;10.166;2022-08-14T01:47:06;21.70;99.90
4993;DHT22;2514;53.524;10.166;2022-08-14T01:49:38;21.60;99.90
4993;DHT22;2514;53.524;10.166;2022-08-14T01:52:05;21.70;99.90
4993;DHT22;2514;53.524;10.166;2022-08-14T01:54:33;21.60;99.90
4993;DHT22;2514;53.524;10.166;2022-08-14T01:57:02;21.60;99.90
4993;DHT22;2514;53.524;10.166;2022-08-14T01:59:31;21.60;99.90
4993;DHT22;2514;53.524;10.166;2022-08-14T02:02:01;21.60;1.00
4993;DHT22;2514;53.524;10.166;2022-08-14T02:04:32;21.50;1.00
4993;DHT22;2514;53.524;10.166;2022-08-14T02:06:59;21.50;1.00
4993;DHT22;2514;53.524;10.166;2022-08-14T02:09:28;21.60;1.00
4993;DHT22;2514;53.524;10.166;2022-08-14T02:12:02;21.50;1.00
4993;DHT22;2514;53.524;10.166;2022-08-14T02:14:29;21.50;29.40
4993;DHT22;2514;53.524;10.166;2022-08-14T02:16:58;21.50;99.90
4993;DHT22;2514;53.524;10.166;2022-08-14T02:19:28;21.40;99.90
4993;DHT22;2514;53.524;10.166;2022-08-14T02:21:57;21.50;99.90
4993;DHT22;2514;53.524;10.166;2022-08-14T02:24:27;21.50;99.90
4993;DHT22;2514;53.524;10.166;2022-08-14T02:26:55;21.40;99.90
4993;DHT22;2514;53.524;10.166;2022-08-14T02:29:27;21.40;1.00
4993;DHT22;2514;53.524;10.166;2022-08-14T02:31:56;21.30;1.00
4993;DHT22;2514;53.524;10.166;2022-08-14T02:34:25;21.30;1.00
4993;DHT22;2514;53.524;10.166;2022-08-14T02:36:55;21.20;92.30
4993;DHT22;2514;53.524;10.166;2022-08-14T02:39:24;21.20;99.90
4993;DHT22;2514;53.524;10.166;2022-08-14T02:41:52;21.10;99.90
4993;DHT22;2514;53.524;10.166;2022-08-14T02:44:19;21.00;1.00
4993;DHT22;2514;53.524;10.166;2022-08-14T02:46:50;21.00;1.00
4993;DHT22;2514;53.524;10.166;2022-08-14T02:49:18;21.00;1.00
4993;DHT22;2514;53.524;10.166;2022-08-14T02:51:54;20.90;1.00
4993;DHT22;2514;53.524;10.166;2022-08-14T02:54:22;20.90;99.90
4993;DHT22;2514;53.524;10.166;2022-08-14T02:56:49;20.90;99.90
4993;DHT22;2514;53.524;10.166;2022-08-14T02:59:18;20.90;99.90
4993;DHT22;2514;53.524;10.166;2022-08-14T03:01:45;20.90;99.90
4993;DHT22;2514;53.524;10.166;2022-08-14T03:04:14;20.90;99.90
4993;DHT22;2514;53.524;10.166;2022-08-14T03:06:41;20.90;99.90
4993;DHT22;2514;53.524;10.166;2022-08-14T03:09:10;20.90;99.90
4993;DHT22;2514;53.524;10.166;2022-08-14T03:11:37;20.80;99.90
4993;DHT22;2514;53.524;10.166;2022-08-14T03:14:04;20.80;99.90
4993;DHT22;2514;53.524;10.166;2022-08-14T03:16:31;20.80;1.00
4993;DHT22;2514;53.524;10.166;2022-08-14T03:19:00;20.80;1.00
4993;DHT22;2514;53.524;10.166;2022-08-14T03:21:29;20.70;1.00
4993;DHT22;2514;53.524;10.166;2022-08-14T03:23:57;20.70;1.00
4993;DHT22;2514;53.524;10.166;2022-08-14T03:26:35;20.80;1.00
4993;DHT22;2514;53.524;10.166;2022-08-14T03:29:03;20.70;1.00
4993;DHT22;2514;53.524;10.166;2022-08-14T03:31:30;20.60;1.00
4993;DHT22;2514;53.524;10.166;2022-08-14T03:33:57;20.60;1.00
4993;DHT22;2514;53.524;10.166;2022-08-14T03:36:25;20.50;89.60
4993;DHT22;2514;53.524;10.166;2022-08-14T03:38:53;20.50;99.90
4993;DHT22;2514;53.524;10.166;2022-08-14T03:41:23;20.50;99.90
4993;DHT22;2514;53.524;10.166;2022-08-14T03:43:52;20.40;1.00
4993;DHT22;2514;53.524;10.166;2022-08-14T03:46:21;20.40;1.00
4993;DHT22;2514;53.524;10.166;2022-08-14T03:48:48;20.30;1.00
4993;DHT22;2514;53.524;10.166;2022-08-14T03:51:15;20.30;1.00
4993;DHT22;2514;53.524;10.166;2022-08-14T03:53:43;20.30;1.00
4993;DHT22;2514;53.524;10.166;2022-08-14T03:56:14;20.30;24.70
4993;DHT22;2514;53.524;10.166;2022-08-14T03:58:46;20.30;49.70
4993;DHT22;2514;53.524;10.166;2022-08-14T04:01:14;20.30;99.90
4993;DHT22;2514;53.524;10.166;2022-08-14T04:03:41;20.20;99.90
4993;DHT22;2514;53.524;10.166;2022-08-14T04:06:08;20.30;99.90
4993;DHT22;2514;53.524;10.166;2022-08-14T04:08:35;20.20;99.90
4993;DHT22;2514;53.524;10.166;2022-08-14T04:11:03;20.20;1.00
4993;DHT22;2514;53.524;10.166;2022-08-14T04:13:33;20.10;1.00
4993;DHT22;2514;53.524;10.166;2022-08-14T04:16:00;20.00;1.00
4993;DHT22;2514;53.524;10.166;2022-08-14T04:18:27;20.00;99.90
4993;DHT22;2514;53.524;10.166;2022-08-14T04:20:55;20.00;99.90
4993;DHT22;2514;53.524;10.166;2022-08-14T04:23:23;20.00;99.90
4993;DHT22;2514;53.524;10.166;2022-08-14T04:25:50;20.00;99.90
4993;DHT22;2514;53.524;10.166;2022-08-14T04:28:19;20.00;1.00
4993;DHT22;2514;53.524;10.166;2022-08-14T04:30:47;20.00;1.00
4993;DHT22;2514;53.524;10.166;2022-08-14T04:33:14;19.90;1.00
4993;DHT22;2514;53.524;10.166;2022-08-14T04:35:42;20.00;1.00
4993;DHT22;2514;53.524;10.166;2022-08-14T04:38:09;19.90;99.90
4993;DHT22;2514;53.524;10.166;2022-08-14T04:40:54;19.90;99.90
4993;DHT22;2514;53.524;10.166;2022-08-14T04:43:39;19.90;99.90
4993;DHT22;2514;53.524;10.166;2022-08-14T04:46:10;20.00;99.90
4993;DHT22;2514;53.524;10.166;2022-08-14T04:48:38;20.00;99.90
4993;DHT22;2514;53.524;10.166;2022-08-14T04:51:06;20.00;99.90
4993;DHT22;2514;53.524;10.166;2022-08-14T04:53:34;20.00;99.90
4993;DHT22;2514;53.524;10.166;2022-08-14T04:56:03;20.00;99.90
4993;DHT22;2514;53.524;10.166;2022-08-14T04:58:32;20.00;1.00
4993;DHT22;2514;53.524;10.166;2022-08-14T05:01:00;20.00;1.00
4993;DHT22;2514;53.524;10.166;2022-08-14T05:03:31;20.00;1.00
4993;DHT22;2514;53.524;10.166;2022-08-14T05:06:00;20.10;1.00
4993;DHT22;2514;53.524;10.166;2022-08-14T05:08:28;20.10;1.00
4993;DHT22;2514;53.524;10.166;2022-08-14T05:10:57;20.20;1.00
4993;DHT22;2514;53.524;10.166;2022-08-14T05:13:25;20.20;1.00
4993;DHT22;2514;53.524;10.166;2022-08-14T05:15:54;20.30;1.00
4993;DHT22;2514;53.524;10.166;2022-08-14T05:18:23;20.30;99.90
4993;DHT22;2514;53.524;10.166;2022-08-14T05:20:53;20.50;99.90
4993;DHT22;2514;53.524;10.166;2022-08-14T05:23:21;20.50;99.90
4993;DHT22;2514;53.524;10.166;2022-08-14T05:25:51;20.60;90.70
4993;DHT22;2514;53.524;10.166;2022-08-14T05:28:21;20.60;23.60
4993;DHT22;2514;53.524;10.166;2022-08-14T05:30:50;20.60;1.00
4993;DHT22;2514;53.524;10.166;2022-08-14T05:33:19;20.70;1.00
4993;DHT22;2514;53.524;10.166;2022-08-14T05:35:47;20.70;1.00
4993;DHT22;2514;53.524;10.166;2022-08-14T05:38:18;20.70;99.90
4993;DHT22;2514;53.524;10.166;2022-08-14T05:40:47;20.70;1.00
4993;DHT22;2514;53.524;10.166;2022-08-14T05:43:14;20.70;1.00
4993;DHT22;2514;53.524;10.166;2022-08-14T05:45:41;20.70;1.00
4993;DHT22;2514;53.524;10.166;2022-08-14T05:48:13;20.80;1.00
4993;DHT22;2514;53.524;10.166;2022-08-14T05:50:41;20.90;99.90
4993;DHT22;2514;53.524;10.166;2022-08-14T05:53:08;21.00;99.90
4993;DHT22;2514;53.524;10.166;2022-08-14T05:55:42;21.10;39.00
4993;DHT22;2514;53.524;10.166;2022-08-14T05:58:09;21.20;1.00
4993;DHT22;2514;53.524;10.166;2022-08-14T06:00:38;21.40;1.00
4993;DHT22;2514;53.524;10.166;2022-08-14T06:03:08;21.50;1.00
4993;DHT22;2514;53.524;10.166;2022-08-14T06:05:35;21.60;99.90
4993;DHT22;2514;53.524;10.166;2022-08-14T06:08:03;21.70;57.40
4993;DHT22;2514;53.524;10.166;2022-08-14T06:10:30;21.90;99.90
4993;DHT22;2514;53.524;10.166;2022-08-14T06:12:58;22.00;99.90
4993;DHT22;2514;53.524;10.166;2022-08-14T06:15:28;22.20;1.00
4993;DHT22;2514;53.524;10.166;2022-08-14T06:17:55;22.30;1.00
4993;DHT22;2514;53.524;10.166;2022-08-14T06:20:23;22.40;1.00
4993;DHT22;2514;53.524;10.166;2022-08-14T06:22:56;22.60;99.90
4993;DHT22;2514;53.524;10.166;2022-08-14T06:25:23;22.70;99.90
4993;DHT22;2514;53.524;10.166;2022-08-14T06:27:50;22.90;25.90
4993;DHT22;2514;53.524;10.166;2022-08-14T06:30:23;22.90;1.00
4993;DHT22;2514;53.524;10.166;2022-08-14T06:32:51;22.90;1.00
4993;DHT22;2514;53.524;10.166;2022-08-14T06:35:18;22.90;1.00
4993;DHT22;2514;53.524;10.166;2022-08-14T06:37:49;23.00;1.00
4993;DHT22;2514;53.524;10.166;2022-08-14T06:40:18;23.00;1.00
4993;DHT22;2514;53.524;10.166;2022-08-14T06:42:45;23.00;1.00
4993;DHT22;2514;53.524;10.166;2022-08-14T06:45:13;23.00;1.00
4993;DHT22;2514;53.524;10.166;2022-08-14T06:47:44;23.10;1.00
4993;DHT22;2514;53.524;10.166;2022-08-14T06:50:12;23.30;1.00
4993;DHT22;2514;53.524;10.166;2022-08-14T06:52:40;23.40;99.90
4993;DHT22;2514;53.524;10.166;2022-08-14T06:55:09;23.50;99.90
4993;DHT22;2514;53.524;10.166;2022-08-14T06:57:38;23.50;99.90
4993;DHT22;2514;53.524;10.166;2022-08-14T07:00:08;23.60;99.90
4993;DHT22;2514;53.524;10.166;2022-08-14T07:02:35;23.70;99.90
4993;DHT22;2514;53.524;10.166;2022-08-14T07:05:21;23.80;99.90
4993;DHT22;2514;53.524;10.166;2022-08-14T07:08:10;23.90;99.90
4993;DHT22;2514;53.524;10.166;2022-08-14T07:10:37;23.90;93.20
4993;DHT22;2514;53.524;10.166;2022-08-14T07:13:04;23.90;61.10
4993;DHT22;2514;53.524;10.166;2022-08-14T07:15:32;23.90;42.80
4993;DHT22;2514;53.524;10.166;2022-08-14T07:17:59;24.00;35.00
4993;DHT22;2514;53.524;10.166;2022-08-14T07:20:27;24.10;31.80
4993;DHT22;2514;53.524;10.166;2022-08-14T07:22:54;24.10;11.60
4993;DHT22;2514;53.524;10.166;2022-08-14T07:25:23;24.10;8.50
4993;DHT22;2514;53.524;10.166;2022-08-14T07:27:50;24.30;1.00
4993;DHT22;2514;53.524;10.166;2022-08-14T07:30:17;24.30;1.00
4993;DHT22;2514;53.524;10.166;2022-08-14T07:32:43;24.50;1.00
4993;DHT22;2514;53.524;10.166;2022-08-14T07:35:10;24.60;1.00
4993;DHT22;2514;53.524;10.166;2022-08-14T07:37:39;24.60;1.00
4993;DHT22;2514;53.524;10.166;2022-08-14T07:40:07;24.50;1.00
4993;DHT22;2514;53.524;10.166;2022-08-14T07:42:35;24.60;1.00
4993;DHT22;2514;53.524;10.166;2022-08-14T07:45:02;24.60;1.00
4993;DHT22;2514;53.524;10.166;2022-08-14T07:47:29;24.70;1.00
4993;DHT22;2514;53.524;10.166;2022-08-14T07:50:01;24.80;1.00
4993;DHT22;2514;53.524;10.166;2022-08-14T07:52:29;24.90;1.00
4993;DHT22;2514;53.524;10.166;2022-08-14T07:54:57;24.90;1.00
4993;DHT22;2514;53.524;10.166;2022-08-14T07:57:25;25.00;1.00
4993;DHT22;2514;53.524;10.166;2022-08-14T07:59:52;25.20;1.00
4993;DHT22;2514;53.524;10.166;2022-08-14T08:02:19;25.20;1.00
4993;DHT22;2514;53.524;10.166;2022-08-14T08:04:48;25.20;1.00
4993;DHT22;2514;53.524;10.166;2022-08-14T08:07:16;25.50;1.00
4993;DHT22;2514;53.524;10.166;2022-08-14T08:09:48;25.80;1.00
4993;DHT22;2514;53.524;10.166;2022-08-14T08:12:19;26.00;1.00
4993;DHT22;2514;53.524;10.166;2022-08-14T08:14:47;26.20;1.00
4993;DHT22;2514;53.524;10.166;2022-08-14T08:17:16;26.50;1.00
4993;DHT22;2514;53.524;10.166;2022-08-14T08:19:45;26.50;99.90
4993;DHT22;2514;53.524;10.166;2022-08-14T08:22:12;26.60;99.90
4993;DHT22;2514;53.524;10.166;2022-08-14T08:24:39;26.90;99.90
4993;DHT22;2514;53.524;10.166;2022-08-14T08:27:14;27.20;99.90
4993;DHT22;2514;53.524;10.166;2022-08-14T08:29:42;27.40;99.90
4993;DHT22;2514;53.524;10.166;2022-08-14T08:32:09;27.70;99.90
4993;DHT22;2514;53.524;10.166;2022-08-14T08:34:43;28.60;54.40
4993;DHT22;2514;53.524;10.166;2022-08-14T08:37:11;30.40;1.00
4993;DHT22;2514;53.524;10.166;2022-08-14T08:39:44;31.70;1.00
4993;DHT22;2514;53.524;10.166;2022-08-14T08:42:11;32.70;1.00
4993;DHT22;2514;53.524;10.166;2022-08-14T08:44:38;33.60;1.00
4993;DHT22;2514;53.524;10.166;2022-08-14T08:47:06;33.80;99.90
4993;DHT22;2514;53.524;10.166;2022-08-14T08:49:37;34.20;99.90
4993;DHT22;2514;53.524;10.166;2022-08-14T08:52:07;35.00;99.90
4993;DHT22;2514;53.524;10.166;2022-08-14T08:54:34;34.90;99.90
4993;DHT22;2514;53.524;10.166;2022-08-14T08:57:10;35.40;99.90
4993;DHT22;2514;53.524;10.166;2022-08-14T08:59:37;35.30;99.90
4993;DHT22;2514;53.524;10.166;2022-08-14T09:02:07;35.30;99.90
4993;DHT22;2514;53.524;10.166;2022-08-14T09:04:36;35.80;99.90
4993;DHT22;2514;53.524;10.166;2022-08-14T09:07:04;35.20;99.90
4993;DHT22;2514;53.524;10.166;2022-08-14T09:09:32;34.30;99.90
4993;DHT22;2514;53.524;10.166;2022-08-14T09:12:00;34.70;99.90
4993;DHT22;2514;53.524;10.166;2022-08-14T09:14:31;34.00;99.90
4993;DHT22;2514;53.524;10.166;2022-08-14T09:16:59;33.30;99.90
4993;DHT22;2514;53.524;10.166;2022-08-14T09:19:27;32.70;99.90
4993;DHT22;2514;53.524;10.166;2022-08-14T09:21:54;32.60;99.90
4993;DHT22;2514;53.524;10.166;2022-08-14T09:24:21;32.30;99.90
4993;DHT22;2514;53.524;10.166;2022-08-14T09:26:48;32.20;99.90
4993;DHT22;2514;53.524;10.166;2022-08-14T09:29:17;31.90;99.90
4993;DHT22;2514;53.524;10.166;2022-08-14T09:31:46;31.50;99.90
4993;DHT22;2514;53.524;10.166;2022-08-14T09:34:21;31.30;99.90
4993;DHT22;2514;53.524;10.166;2022-08-14T09:37:13;31.80;99.90
4993;DHT22;2514;53.524;10.166;2022-08-14T09:39:53;32.80;99.90
4993;DHT22;2514;53.524;10.166;2022-08-14T09:42:39;33.80;99.90
4993;DHT22;2514;53.524;10.166;2022-08-14T09:45:13;35.00;99.90
4993;DHT22;2514;53.524;10.166;2022-08-14T09:47:42;35.30;99.90
4993;DHT22;2514;53.524;10.166;2022-08-14T09:50:21;34.70;99.90
4993;DHT22;2514;53.524;10.166;2022-08-14T09:52:52;33.60;99.90
4993;DHT22;2514;53.524;10.166;2022-08-14T09:55:22;33.40;99.90
4993;DHT22;2514;53.524;10.166;2022-08-14T09:57:49;33.10;99.90
4993;DHT22;2514;53.524;10.166;2022-08-14T10:00:18;32.80;99.90
4993;DHT22;2514;53.524;10.166;2022-08-14T10:02:53;31.70;99.90
4993;DHT22;2514;53.524;10.166;2022-08-14T10:05:29;31.70;99.90
4993;DHT22;2514;53.524;10.166;2022-08-14T10:07:57;32.20;99.90
4993;DHT22;2514;53.524;10.166;2022-08-14T10:10:29;32.60;99.90
4993;DHT22;2514;53.524;10.166;2022-08-14T10:12:57;31.90;99.90
4993;DHT22;2514;53.524;10.166;2022-08-14T10:15:27;31.60;99.90
4993;DHT22;2514;53.524;10.166;2022-08-14T10:18:06;31.60;99.90
4993;DHT22;2514;53.524;10.166;2022-08-14T10:20:37;31.50;99.90
4993;DHT22;2514;53.524;10.166;2022-08-14T10:23:12;31.50;99.90
4993;DHT22;2514;53.524;10.166;2022-08-14T10:25:40;31.40;99.90
4993;DHT22;2514;53.524;10.166;2022-08-14T10:28:08;31.30;99.90
4993;DHT22;2514;53.524;10.166;2022-08-14T10:30:40;31.30;99.90
4993;DHT22;2514;53.524;10.166;2022-08-14T10:33:07;31.10;99.90
4993;DHT22;2514;53.524;10.166;2022-08-14T10:35:42;30.80;99.90
4993;DHT22;2514;53.524;10.166;2022-08-14T10:38:11;30.70;99.90
4993;DHT22;2514;53.524;10.166;2022-08-14T10:40:38;30.70;99.90
4993;DHT22;2514;53.524;10.166;2022-08-14T10:43:19;30.70;99.90
4993;DHT22;2514;53.524;10.166;2022-08-14T10:45:55;30.70;99.90
4993;DHT22;2514;53.524;10.166;2022-08-14T10:48:23;30.80;99.90
4993;DHT22;2514;53.524;10.166;2022-08-14T10:50:50;30.70;99.90
4993;DHT22;2514;53.524;10.166;2022-08-14T10:53:32;30.70;99.90
4993;DHT22;2514;53.524;10.166;2022-08-14T10:56:03;30.40;99.90
4993;DHT22;2514;53.524;10.166;2022-08-14T10:58:33;30.30;99.90
4993;DHT22;2514;53.524;10.166;2022-08-14T11:01:02;30.30;99.90
4993;DHT22;2514;53.524;10.166;2022-08-14T11:03:37;30.20;99.90
4993;DHT22;2514;53.524;10.166;2022-08-14T11:06:16;30.10;99.90
4993;DHT22;2514;53.524;10.166;2022-08-14T11:08:46;30.40;99.90
4993;DHT22;2514;53.524;10.166;2022-08-14T11:11:14;30.40;99.90
4993;DHT22;2514;53.524;10.166;2022-08-14T11:13:42;30.50;99.90
4993;DHT22;2514;53.524;10.166;2022-08-14T11:16:11;30.60;99.90
4993;DHT22;2514;53.524;10.166;2022-08-14T11:18:43;30.50;99.90
4993;DHT22;2514;53.524;10.166;2022-08-14T11:21:14;30.60;99.90
4993;DHT22;2514;53.524;10.166;2022-08-14T11:23:44;30.50;99.90
4993;DHT22;2514;53.524;10.166;2022-08-14T11:26:14;30.40;99.90
4993;DHT22;2514;53.524;10.166;2022-08-14T11:28:46;30.20;99.90
4993;DHT22;2514;53.524;10.166;2022-08-14T11:31:17;29.80;99.90
4993;DHT22;2514;53.524;10.166;2022-08-14T11:33:48;29.50;99.90
4993;DHT22;2514;53.524;10.166;2022-08-14T11:36:15;29.70;99.90
4993;DHT22;2514;53.524;10.166;2022-08-14T11:38:44;29.60;99.90
4993;DHT22;2514;53.524;10.166;2022-08-14T11:41:14;29.50;99.90
4993;DHT22;2514;53.524;10.166;2022-08-14T11:43:42;29.60;99.90
4993;DHT22;2514;53.524;10.166;2022-08-14T11:46:10;29.90;99.90
4993;DHT22;2514;53.524;10.166;2022-08-14T11:48:46;30.10;99.90
4993;DHT22;2514;53.524;10.166;2022-08-14T11:51:14;30.50;99.90
4993;DHT22;2514;53.524;10.166;2022-08-14T11:53:53;30.60;99.90
4993;DHT22;2514;53.524;10.166;2022-08-14T11:56:22;30.80;99.90
4993;DHT22;2514;53.524;10.166;2022-08-14T11:58:51;31.30;99.90
4993;DHT22;2514;53.524;10.166;2022-08-14T12:01:24;31.60;99.90
4993;DHT22;2514;53.524;10.166;2022-08-14T12:03:53;31.70;99.90
4993;DHT22;2514;53.524;10.166;2022-08-14T12:06:24;31.90;99.90
4993;DHT22;2514;53.524;10.166;2022-08-14T12:08:51;32.40;99.90
4993;DHT22;2514;53.524;10.166;2022-08-14T12:11:22;32.90;99.90
4993;DHT22;2514;53.524;10.166;2022-08-14T12:13:49;33.70;99.90
4993;DHT22;2514;53.524;10.166;2022-08-14T12:16:16;33.70;99.90
4993;DHT22;2514;53.524;10.166;2022-08-14T12:18:47;33.50;99.90
4993;DHT22;2514;53.524;10.166;2022-08-14T12:21:16;33.60;99.90
4993;DHT22;2514;53.524;10.166;2022-08-14T12:23:44;34.40;99.90
4993;DHT22;2514;53.524;10.166;2022-08-14T12:26:14;35.00;99.90
4993;DHT22;2514;53.524;10.166;2022-08-14T12:28:44;35.10;99.90
4993;DHT22;2514;53.524;10.166;2022-08-14T12:31:12;34.70;99.90
4993;DHT22;2514;53.524;10.166;2022-08-14T12:33:42;34.60;99.90
4993;DHT22;2514;53.524;10.166;2022-08-14T12:36:18;35.20;99.90
4993;DHT22;2514;53.524;10.166;2022-08-14T12:38:47;35.60;99.90
4993;DHT22;2514;53.524;10.166;2022-08-14T12:41:16;35.50;99.90
4993;DHT22;2514;53.524;10.166;2022-08-14T12:43:48;36.00;99.90
4993;DHT22;2514;53.524;10.166;2022-08-14T12:46:27;36.60;99.90
4993;DHT22;2514;53.524;10.166;2022-08-14T12:48:56;36.40;99.90
4993;DHT22;2514;53.524;10.166;2022-08-14T12:51:24;36.30;99.90
4993;DHT22;2514;53.524;10.166;2022-08-14T12:53:52;36.10;99.90
4993;DHT22;2514;53.524;10.166;2022-08-14T12:56:21;35.60;99.90
4993;DHT22;2514;53.524;10.166;2022-08-14T12:58:52;34.80;99.90
4993;DHT22;2514;53.524;10.166;2022-08-14T13:01:22;34.80;99.90
4993;DHT22;2514;53.524;10.166;2022-08-14T13:03:50;34.80;99.90
4993;DHT22;2514;53.524;10.166;2022-08-14T13:06:18;35.00;99.90
4993;DHT22;2514;53.524;10.166;2022-08-14T13:11:48;35.60;99.90
4993;DHT22;2514;53.524;10.166;2022-08-14T13:14:28;35.90;99.90
4993;DHT22;2514;53.524;10.166;2022-08-14T13:16:58;35.50;99.90
4993;DHT22;2514;53.524;10.166;2022-08-14T13:19:26;35.80;99.90
4993;DHT22;2514;53.524;10.166;2022-08-14T13:21:53;35.90;99.90
4993;DHT22;2514;53.524;10.166;2022-08-14T13:24:22;35.80;99.90
4993;DHT22;2514;53.524;10.166;2022-08-14T13:26:50;36.30;99.90
4993;DHT22;2514;53.524;10.166;2022-08-14T13:29:19;36.90;1.00
4993;DHT22;2514;53.524;10.166;2022-08-14T13:31:50;37.70;1.00
4993;DHT22;2514;53.524;10.166;2022-08-14T13:34:19;38.00;1.00
4993;DHT22;2514;53.524;10.166;2022-08-14T13:36:48;37.80;1.00
4993;DHT22;2514;53.524;10.166;2022-08-14T13:39:17;37.20;1.00
4993;DHT22;2514;53.524;10.166;2022-08-14T13:41:44;36.50;1.00
4993;DHT22;2514;53.524;10.166;2022-08-14T13:44:12;36.20;1.00
4993;DHT22;2514;53.524;10.166;2022-08-14T13:46:39;35.70;1.00
4993;DHT22;2514;53.524;10.166;2022-08-14T13:49:07;35.00;1.00
4993;DHT22;2514;53.524;10.166;2022-08-14T13:51:37;34.40;1.00
4993;DHT22;2514;53.524;10.166;2022-08-14T13:54:06;34.10;1.00
4993;DHT22;2514;53.524;10.166;2022-08-14T13:56:36;33.90;1.00
4993;DHT22;2514;53.524;10.166;2022-08-14T13:59:04;34.00;1.00
4993;DHT22;2514;53.524;10.166;2022-08-14T14:01:31;33.90;1.00
4993;DHT22;2514;53.524;10.166;2022-08-14T14:04:02;34.10;1.00
4993;DHT22;2514;53.524;10.166;2022-08-14T14:06:32;34.40;1.00
4993;DHT22;2514;53.524;10.166;2022-08-14T14:09:01;34.50;1.00
4993;DHT22;2514;53.524;10.166;2022-08-14T14:11:28;34.60;1.00
4993;DHT22;2514;53.524;10.166;2022-08-14T14:13:56;35.00;1.00
4993;DHT22;2514;53.524;10.166;2022-08-14T14:16:25;35.30;1.00
4993;DHT22;2514;53.524;10.166;2022-08-14T14:18:53;35.50;1.00
4993;DHT22;2514;53.524;10.166;2022-08-14T14:21:21;35.60;1.00
4993;DHT22;2514;53.524;10.166;2022-08-14T14:23:53;35.20;1.00
4993;DHT22;2514;53.524;10.166;2022-08-14T14:26:20;35.50;1.00
4993;DHT22;2514;53.524;10.166;2022-08-14T14:28:49;36.10;1.00
4993;DHT22;2514;53.524;10.166;2022-08-14T14:31:19;36.90;1.00
4993;DHT22;2514;53.524;10.166;2022-08-14T14:33:51;37.30;1.00
4993;DHT22;2514;53.524;10.166;2022-08-14T14:36:19;37.40;1.00
4993;DHT22;2514;53.524;10.166;2022-08-14T14:38:53;37.90;1.00
4993;DHT22;2514;53.524;10.166;2022-08-14T14:41:22;37.60;1.00
4993;DHT22;2514;53.524;10.166;2022-08-14T14:43:50;37.50;1.00
4993;DHT22;2514;53.524;10.166;2022-08-14T14:46:17;36.30;1.00
4993;DHT22;2514;53.524;10.166;2022-08-14T14:48:44;35.90;1.00
4993;DHT22;2514;53.524;10.166;2022-08-14T14:51:12;36.50;1.00
4993;DHT22;2514;53.524;10.166;2022-08-14T14:53:40;37.30;1.00
4993;DHT22;2514;53.524;10.166;2022-08-14T14:56:09;37.50;1.00
4993;DHT22;2514;53.524;10.166;2022-08-14T14:58:37;37.80;1.00
4993;DHT22;2514;53.524;10.166;2022-08-14T15:01:05;38.00;1.00
4993;DHT22;2514;53.524;10.166;2022-08-14T15:03:33;38.10;1.00
4993;DHT22;2514;53.524;10.166;2022-08-14T15:06:01;37.90;1.00
4993;DHT22;2514;53.524;10.166;2022-08-14T15:08:28;37.40;1.00
4993;DHT22;2514;53.524;10.166;2022-08-14T15:10:55;36.20;1.00
4993;DHT22;2514;53.524;10.166;2022-08-14T15:13:25;35.10;1.00
4993;DHT22;2514;53.524;10.166;2022-08-14T15:15:52;34.40;1.00
4993;DHT22;2514;53.524;10.166;2022-08-14T15:18:20;34.10;1.00
4993;DHT22;2514;53.524;10.166;2022-08-14T15:20:47;33.90;1.00
4993;DHT22;2514;53.524;10.166;2022-08-14T15:23:18;34.20;1.00
4993;DHT22;2514;53.524;10.166;2022-08-14T15:25:46;34.70;1.00
4993;DHT22;2514;53.524;10.166;2022-08-14T15:28:13;34.20;1.00
4993;DHT22;2514;53.524;10.166;2022-08-14T15:30:45;33.50;1.00
4993;DHT22;2514;53.524;10.166;2022-08-14T15:33:12;33.20;1.00
4993;DHT22;2514;53.524;10.166;2022-08-14T15:35:40;32.70;1.00
4993;DHT22;2514;53.524;10.166;2022-08-14T15:38:07;32.20;1.00
4993;DHT22;2514;53.524;10.166;2022-08-14T15:40:34;31.80;1.00
4993;DHT22;2514;53.524;10.166;2022-08-14T15:43:02;31.60;1.00
4993;DHT22;2514;53.524;10.166;2022-08-14T15:45:29;31.40;1.00
4993;DHT22;2514;53.524;10.166;2022-08-14T15:47:58;31.60;1.00
4993;DHT22;2514;53.524;10.166;2022-08-14T15:50:26;32.00;1.00
4993;DHT22;2514;53.524;10.166;2022-08-14T15:52:53;31.90;1.00
4993;DHT22;2514;53.524;10.166;2022-08-14T15:55:20;31.80;1.00
4993;DHT22;2514;53.524;10.166;2022-08-14T15:57:48;31.80;1.00
4993;DHT22;2514;53.524;10.166;2022-08-14T16:00:15;31.60;1.00
4993;DHT22;2514;53.524;10.166;2022-08-14T16:03:02;31.50;1.00
4993;DHT22;2514;53.524;10.166;2022-08-14T16:05:30;31.40;1.00
4993;DHT22;2514;53.524;10.166;2022-08-14T16:07:56;31.20;2.10
4993;DHT22;2514;53.524;10.166;2022-08-14T16:10:23;30.90;1.00